createdAt,value
2022-11-25T00:01:22.824Z,11.93
2022-11-25T00:03:50.902Z,12.03
2022-11-25T00:06:25.384Z,12.02
2022-11-25T00:08:56.463Z,12.02
2022-11-25T00:11:23.391Z,12.04
2022-11-25T00:13:51.208Z,11.98
2022-11-25T00:16:21.034Z,11.98
2022-11-25T00:18:49.581Z,12.04
2022-11-25T00:21:22.138Z,12.02
2022-11-25T00:23:57.370Z,12.04
2022-11-25T00:26:26.008Z,12.02
2022-11-25T00:28:53.559Z,11.98
2022-11-25T00:31:23.406Z,12.02
2022-11-25T00:33:51.349Z,11.93
2022-11-25T00:36:31.369Z,12.06
2022-11-25T00:39:04.310Z,12.02
2022-11-25T00:41:50.451Z,12.02
2022-11-25T00:44:38.979Z,12.04
2022-11-25T00:47:17.689Z,11.92
2022-11-25T00:49:46.975Z,12.02
2022-11-25T00:52:18.935Z,12.00
2022-11-25T00:54:47.901Z,12.02
2022-11-25T00:57:16.161Z,12.01
2022-11-25T00:59:42.991Z,12.02
2022-11-25T01:02:10.938Z,11.92
2022-11-25T01:04:38.271Z,12.02
2022-11-25T01:07:06.084Z,11.92
2022-11-25T01:09:33.103Z,12.03
2022-11-25T01:11:59.971Z,12.03
2022-11-25T01:14:27.078Z,12.04
2022-11-25T01:16:54.023Z,12.00
2022-11-25T01:19:21.359Z,12.01
2022-11-25T01:21:48.275Z,12.02
2022-11-25T01:24:16.721Z,12.00
2022-11-25T01:26:45.144Z,11.91
2022-11-25T01:29:17.893Z,11.97
2022-11-25T01:31:46.209Z,11.98
2022-11-25T01:34:25.191Z,11.96
2022-11-25T01:36:52.093Z,11.86
2022-11-25T01:39:28.607Z,11.93
2022-11-25T01:41:58.800Z,11.93
2022-11-25T01:44:29.005Z,11.91
2022-11-25T01:47:05.143Z,11.92
2022-11-25T01:49:55.144Z,11.91
2022-11-25T01:52:43.024Z,11.89
2022-11-25T01:55:12.806Z,11.87
2022-11-25T01:57:47.905Z,11.89
2022-11-25T02:00:15.673Z,11.88
2022-11-25T02:02:43.294Z,11.91
2022-11-25T02:05:15.248Z,11.88
2022-11-25T02:07:46.478Z,11.81
2022-11-25T02:10:16.714Z,11.89
2022-11-25T02:12:45.874Z,11.87
2022-11-25T02:15:14.428Z,11.78
2022-11-25T02:17:42.511Z,11.86
2022-11-25T02:20:12.412Z,11.87
2022-11-25T02:22:59.353Z,11.79
2022-11-25T02:25:29.776Z,11.87
2022-11-25T02:28:05.099Z,11.86
2022-11-25T02:30:32.788Z,11.78
2022-11-25T02:33:00.528Z,11.87
2022-11-25T02:35:28.922Z,11.87
2022-11-25T02:38:00.231Z,11.86
2022-11-25T02:40:29.267Z,11.87
2022-11-25T02:42:59.966Z,11.87
2022-11-25T02:45:37.368Z,11.79
2022-11-25T02:48:04.496Z,11.80
2022-11-25T02:50:31.355Z,11.89
2022-11-25T02:52:58.247Z,11.81
2022-11-25T02:55:25.063Z,11.89
2022-11-25T02:57:51.940Z,11.81
2022-11-25T03:00:19.239Z,11.86
2022-11-25T03:02:46.141Z,11.91
2022-11-25T03:05:13.500Z,11.91
2022-11-25T03:07:40.478Z,11.91
2022-11-25T03:10:07.614Z,11.92
2022-11-25T03:12:34.436Z,11.93
2022-11-25T03:15:01.289Z,11.95
2022-11-25T03:17:28.880Z,11.94
2022-11-25T03:19:56.023Z,11.94
2022-11-25T03:22:23.006Z,11.95
2022-11-25T03:24:49.928Z,11.96
2022-11-25T03:27:16.894Z,11.96
2022-11-25T03:29:44.228Z,11.95
2022-11-25T03:32:11.045Z,11.97
2022-11-25T03:34:38.050Z,11.97
2022-11-25T03:37:05.125Z,11.98
2022-11-25T03:39:31.989Z,11.90
2022-11-25T03:41:58.826Z,11.98
2022-11-25T03:44:25.785Z,12.01
2022-11-25T03:46:52.904Z,12.01
2022-11-25T03:49:19.785Z,12.01
2022-11-25T03:51:46.587Z,12.02
2022-11-25T03:54:13.371Z,12.02
2022-11-25T03:56:40.463Z,11.94
2022-11-25T03:59:07.272Z,12.05
2022-11-25T04:01:34.171Z,11.96
2022-11-25T04:04:01.423Z,12.04
2022-11-25T04:06:28.246Z,12.06
2022-11-25T04:08:55.101Z,12.05
2022-11-25T04:11:21.888Z,12.05
2022-11-25T04:13:48.661Z,12.06
2022-11-25T04:16:23.901Z,12.07
2022-11-25T04:18:51.146Z,11.98
2022-11-25T04:21:17.993Z,12.08
2022-11-25T04:23:44.813Z,12.01
2022-11-25T04:26:11.668Z,12.01
2022-11-25T04:28:38.472Z,12.09
2022-11-25T04:31:09.348Z,12.10
2022-11-25T04:33:36.227Z,12.11
2022-11-25T04:36:03.400Z,12.11
2022-11-25T04:38:30.488Z,12.11
2022-11-25T04:40:57.303Z,12.12
2022-11-25T04:43:24.161Z,12.12
2022-11-25T04:46:12.933Z,12.03
2022-11-25T04:48:38.028Z,12.13
2022-11-25T04:51:04.879Z,12.13
2022-11-25T04:53:31.722Z,12.13
2022-11-25T04:55:58.508Z,12.13
2022-11-25T04:58:44.048Z,12.14
2022-11-25T05:01:10.937Z,12.14
2022-11-25T05:03:37.819Z,12.12
2022-11-25T05:06:09.132Z,12.07
2022-11-25T05:08:36.590Z,12.16
2022-11-25T05:11:03.435Z,12.18
2022-11-25T05:13:30.218Z,12.17
2022-11-25T05:16:00.397Z,12.18
2022-11-25T05:18:27.219Z,12.17
2022-11-25T05:20:54.020Z,12.18
2022-11-25T05:23:20.999Z,12.19
2022-11-25T05:25:47.839Z,12.13
2022-11-25T05:28:14.612Z,12.20
2022-11-25T05:30:42.691Z,12.20
2022-11-25T05:33:09.472Z,12.21
2022-11-25T05:35:36.423Z,12.21
2022-11-25T05:38:04.510Z,12.22
2022-11-25T05:40:31.899Z,12.22
2022-11-25T05:43:02.094Z,12.13
2022-11-25T05:45:28.960Z,12.24
2022-11-25T05:47:55.794Z,12.24
2022-11-25T05:50:22.858Z,12.14
2022-11-25T05:52:49.681Z,12.25
2022-11-25T05:55:16.492Z,12.16
2022-11-25T05:57:43.368Z,12.26
2022-11-25T06:00:10.758Z,12.26
2022-11-25T06:02:37.695Z,12.27
2022-11-25T06:05:04.866Z,12.27
2022-11-25T06:07:31.836Z,12.27
2022-11-25T06:10:02.816Z,12.27
2022-11-25T06:12:30.228Z,12.28
2022-11-25T06:14:57.057Z,12.30
2022-11-25T06:17:23.854Z,12.29
2022-11-25T06:19:50.694Z,12.29
2022-11-25T06:22:17.563Z,12.30
2022-11-25T06:24:46.517Z,12.30
2022-11-25T06:27:15.788Z,12.30
2022-11-25T06:29:42.618Z,12.30
2022-11-25T06:32:09.441Z,12.30
2022-11-25T06:34:36.937Z,12.30
2022-11-25T06:37:04.068Z,12.30
2022-11-25T06:39:30.881Z,12.30
2022-11-25T06:41:57.741Z,12.31
2022-11-25T06:44:24.747Z,12.32
2022-11-25T06:46:51.745Z,12.32
2022-11-25T06:49:18.816Z,12.25
2022-11-25T06:51:45.767Z,12.32
2022-11-25T06:54:12.611Z,12.32
2022-11-25T06:56:39.701Z,12.33
2022-11-25T06:59:07.607Z,12.32
2022-11-25T07:01:35.016Z,12.31
2022-11-25T07:04:05.878Z,12.32
2022-11-25T07:06:33.799Z,12.32
2022-11-25T07:09:01.054Z,12.32
2022-11-25T07:11:40.446Z,12.33
2022-11-25T07:14:11.929Z,12.33
2022-11-25T07:16:44.209Z,12.35
2022-11-25T07:19:13.193Z,12.34
2022-11-25T07:21:40.706Z,12.35
2022-11-25T07:24:08.582Z,12.34
2022-11-25T07:26:38.607Z,12.24
2022-11-25T07:29:23.534Z,12.24
2022-11-25T07:31:56.052Z,12.35
2022-11-25T07:34:23.483Z,12.32
2022-11-25T07:36:51.070Z,12.32
2022-11-25T07:39:23.301Z,12.32
2022-11-25T07:41:51.938Z,12.34
2022-11-25T07:44:20.102Z,12.31
2022-11-25T07:46:49.396Z,12.32
2022-11-25T07:49:19.217Z,12.33
2022-11-25T07:51:51.570Z,12.33
2022-11-25T07:54:18.548Z,12.33
2022-11-25T07:56:46.119Z,12.33
2022-11-25T07:59:15.852Z,12.32
2022-11-25T08:01:43.544Z,12.32
2022-11-25T08:04:18.099Z,12.32
2022-11-25T08:06:48.531Z,12.32
2022-11-25T08:09:19.558Z,12.23
2022-11-25T08:11:47.850Z,12.29
2022-11-25T08:14:15.721Z,12.24
2022-11-25T08:16:42.816Z,12.32
2022-11-25T08:19:14.082Z,12.33
2022-11-25T08:21:41.815Z,12.32
2022-11-25T08:24:13.507Z,12.32
2022-11-25T08:26:40.368Z,12.23
2022-11-25T08:29:07.718Z,12.33
2022-11-25T08:31:38.067Z,12.28
2022-11-25T08:34:06.976Z,12.33
2022-11-25T08:36:34.971Z,12.31
2022-11-25T08:39:22.628Z,12.33
2022-11-25T08:41:52.934Z,12.31
2022-11-25T08:44:19.929Z,12.32
2022-11-25T08:46:47.131Z,12.31
2022-11-25T08:49:17.056Z,12.30
2022-11-25T08:51:43.961Z,12.32
2022-11-25T08:54:10.885Z,12.33
2022-11-25T08:56:37.738Z,12.31
2022-11-25T08:59:05.484Z,12.33
2022-11-25T09:01:33.106Z,12.32
2022-11-25T09:04:00.639Z,12.33
2022-11-25T09:06:28.998Z,12.33
2022-11-25T09:08:58.699Z,12.32
2022-11-25T09:11:26.525Z,12.31
2022-11-25T09:13:53.786Z,12.32
2022-11-25T09:16:21.648Z,12.33
2022-11-25T09:18:53.990Z,12.33
2022-11-25T09:21:25.425Z,12.34
2022-11-25T09:23:54.490Z,12.32
2022-11-25T09:26:37.069Z,12.32
2022-11-25T09:29:04.622Z,12.34
2022-11-25T09:31:31.922Z,12.34
2022-11-25T09:33:59.251Z,12.34
2022-11-25T09:36:26.477Z,12.23
2022-11-25T09:38:53.657Z,12.34
2022-11-25T09:42:37.551Z,12.34
2022-11-25T09:45:48.974Z,12.33
2022-11-25T09:48:40.947Z,12.32
2022-11-25T09:51:22.149Z,12.34
2022-11-25T09:53:56.046Z,12.35
2022-11-25T09:56:42.509Z,12.32
2022-11-25T09:59:19.186Z,12.33
2022-11-25T10:01:51.130Z,12.34
2022-11-25T10:04:41.615Z,12.33
2022-11-25T10:07:18.764Z,12.32
2022-11-25T10:09:45.841Z,12.33
2022-11-25T10:12:25.568Z,12.34
2022-11-25T10:14:59.335Z,12.24
2022-11-25T10:17:50.494Z,12.35
2022-11-25T10:20:28.983Z,12.34
2022-11-25T10:23:03.800Z,12.34
2022-11-25T10:25:36.369Z,12.25
2022-11-25T10:28:19.894Z,12.34
2022-11-25T10:30:46.964Z,12.34
2022-11-25T10:33:29.572Z,12.25
2022-11-25T10:36:01.716Z,12.34
2022-11-25T10:38:53.811Z,12.33
2022-11-25T10:41:24.255Z,12.28
2022-11-25T10:43:51.655Z,12.35
2022-11-25T10:46:38.166Z,12.30
2022-11-25T10:49:27.817Z,12.34
2022-11-25T10:51:57.713Z,12.35
2022-11-25T10:54:39.424Z,12.34
2022-11-25T10:57:32.679Z,12.35
2022-11-25T11:00:01.911Z,12.35
2022-11-25T11:02:40.482Z,12.35
2022-11-25T11:05:10.324Z,12.33
2022-11-25T11:07:44.169Z,12.36
2022-11-25T11:10:20.190Z,12.37
2022-11-25T11:13:04.459Z,12.36
2022-11-25T11:15:44.634Z,12.36
2022-11-25T11:18:24.068Z,12.36
2022-11-25T11:20:54.905Z,12.37
2022-11-25T11:23:22.535Z,12.37
2022-11-25T11:26:00.600Z,12.37
2022-11-25T11:28:41.572Z,12.37
2022-11-25T11:31:29.639Z,12.36
2022-11-25T11:34:08.287Z,12.37
2022-11-25T11:36:37.785Z,12.28
2022-11-25T11:39:33.262Z,12.36
2022-11-25T11:42:31.934Z,12.36
2022-11-25T11:45:25.180Z,12.36
2022-11-25T11:48:04.577Z,12.28
2022-11-25T11:50:40.409Z,12.39
2022-11-25T11:53:23.909Z,12.30
2022-11-25T11:56:33.630Z,12.41
2022-11-25T11:59:05.698Z,12.35
2022-11-25T12:01:54.069Z,12.43
2022-11-25T12:04:50.083Z,12.36
2022-11-25T12:07:55.355Z,12.46
2022-11-25T12:10:25.027Z,12.48
2022-11-25T12:13:08.014Z,12.48
2022-11-25T12:15:41.840Z,12.48
2022-11-25T12:18:20.877Z,12.39
2022-11-25T12:20:55.595Z,12.49
2022-11-25T12:23:58.437Z,12.54
2022-11-25T12:26:33.669Z,12.51
2022-11-25T12:29:12.527Z,12.54
2022-11-25T12:31:48.903Z,12.42
2022-11-25T12:34:46.663Z,12.42
2022-11-25T12:37:29.422Z,12.53
2022-11-25T12:40:15.329Z,12.52
2022-11-25T12:42:44.256Z,12.50
2022-11-25T12:45:19.213Z,12.52
2022-11-25T12:47:46.562Z,12.51
2022-11-25T12:50:41.309Z,12.52
2022-11-25T12:53:09.309Z,12.54
2022-11-25T12:55:39.701Z,12.54
2022-11-25T12:58:30.798Z,12.55
2022-11-25T13:01:03.718Z,12.48
2022-11-25T13:03:52.489Z,12.49
2022-11-25T13:06:47.681Z,12.57
2022-11-25T13:09:23.586Z,12.55
2022-11-25T13:12:01.197Z,12.47
2022-11-25T13:14:53.069Z,12.56
2022-11-25T13:17:21.977Z,12.55
2022-11-25T13:19:49.351Z,12.58
2022-11-25T13:22:22.725Z,12.51
2022-11-25T13:24:50.423Z,12.62
2022-11-25T13:27:29.696Z,12.66
2022-11-25T13:29:56.827Z,12.62
2022-11-25T13:32:34.119Z,12.65
2022-11-25T13:35:22.763Z,12.61
2022-11-25T13:37:51.044Z,12.61
2022-11-25T13:40:23.912Z,12.61
2022-11-25T13:42:52.398Z,12.52
2022-11-25T13:45:39.356Z,12.59
2022-11-25T13:48:20.067Z,12.60
2022-11-25T13:51:10.143Z,12.61
2022-11-25T13:53:38.252Z,12.61
2022-11-25T13:56:27.232Z,12.62
2022-11-25T13:59:14.479Z,12.65
2022-11-25T14:01:47.760Z,12.66
2022-11-25T14:04:18.581Z,12.66
2022-11-25T14:07:04.458Z,12.68
2022-11-25T14:09:47.283Z,12.58
2022-11-25T14:12:47.331Z,12.67
2022-11-25T14:15:30.757Z,12.65
2022-11-25T14:19:11.880Z,12.62
2022-11-25T14:21:21.630Z,12.65
2022-11-25T14:24:04.137Z,12.63
2022-11-25T14:26:49.240Z,12.62
2022-11-25T14:29:37.961Z,12.62
2022-11-25T14:32:15.187Z,12.63
2022-11-25T14:34:53.399Z,12.62
2022-11-25T14:37:33.608Z,12.63
2022-11-25T14:40:08.097Z,12.63
2022-11-25T14:42:41.831Z,12.64
2022-11-25T14:45:30.164Z,12.59
2022-11-25T14:47:57.642Z,12.63
2022-11-25T14:50:40.840Z,12.61
2022-11-25T14:53:12.274Z,12.61
2022-11-25T14:55:39.298Z,12.61
2022-11-25T14:58:06.268Z,12.59
2022-11-25T15:00:33.246Z,12.59
2022-11-25T15:03:06.744Z,12.50
2022-11-25T15:05:39.414Z,12.59
2022-11-25T15:08:16.270Z,12.60
2022-11-25T15:10:52.154Z,12.60
2022-11-25T15:13:32.519Z,12.57
2022-11-25T15:16:15.227Z,12.57
2022-11-25T15:18:48.164Z,12.57
2022-11-25T15:21:17.702Z,12.58
2022-11-25T15:23:44.841Z,12.58
2022-11-25T15:26:24.360Z,12.57
2022-11-25T15:28:57.205Z,12.56
2022-11-25T15:31:31.067Z,12.56
2022-11-25T15:34:02.270Z,12.55
2022-11-25T15:36:29.615Z,12.55
2022-11-25T15:39:16.153Z,12.47
2022-11-25T15:41:45.697Z,12.44
2022-11-25T15:44:23.217Z,12.44
2022-11-25T15:46:58.136Z,12.52
2022-11-25T15:49:25.348Z,12.52
2022-11-25T15:52:05.336Z,12.52
2022-11-25T15:54:38.511Z,12.53
2022-11-25T15:57:15.993Z,12.52
2022-11-25T15:59:47.680Z,12.53
2022-11-25T16:02:35.338Z,12.51
2022-11-25T16:05:14.636Z,12.52
2022-11-25T16:07:50.836Z,12.51
2022-11-25T16:10:29.615Z,12.49
2022-11-25T16:13:21.248Z,12.49
2022-11-25T16:15:58.278Z,12.50
2022-11-25T16:18:40.174Z,12.50
2022-11-25T16:21:21.349Z,12.49
2022-11-25T16:23:52.641Z,12.49
2022-11-25T16:26:25.336Z,12.48
2022-11-25T16:28:55.481Z,12.46
2022-11-25T16:31:23.035Z,12.45
2022-11-25T16:33:53.469Z,12.46
2022-11-25T16:36:20.649Z,12.45
2022-11-25T16:38:52.337Z,12.46
2022-11-25T16:41:23.022Z,12.44
2022-11-25T16:43:50.172Z,12.45
2022-11-25T16:46:19.406Z,12.44
2022-11-25T16:48:47.495Z,12.44
2022-11-25T16:51:16.255Z,12.43
2022-11-25T16:53:45.322Z,12.45
2022-11-25T16:56:28.170Z,12.36
2022-11-25T16:58:56.728Z,12.44
2022-11-25T17:01:28.175Z,12.43
2022-11-25T17:03:55.752Z,12.43
2022-11-25T17:06:25.692Z,12.42
2022-11-25T17:08:53.431Z,12.40
2022-11-25T17:11:46.653Z,12.43
2022-11-25T17:14:21.140Z,12.41
2022-11-25T17:16:48.255Z,12.31
2022-11-25T17:19:17.805Z,12.40
2022-11-25T17:21:44.954Z,12.41
2022-11-25T17:24:21.095Z,12.31
2022-11-25T17:26:53.854Z,12.39
2022-11-25T17:29:25.776Z,12.40
2022-11-25T17:31:58.132Z,12.40
2022-11-25T17:34:25.597Z,12.37
2022-11-25T17:36:52.554Z,12.38
2022-11-25T17:39:19.552Z,12.29
2022-11-25T17:41:48.904Z,12.36
2022-11-25T17:44:24.030Z,12.37
2022-11-25T17:46:51.500Z,12.35
2022-11-25T17:49:18.570Z,12.34
2022-11-25T17:51:45.602Z,12.34
2022-11-25T17:54:13.290Z,12.32
2022-11-25T17:56:42.297Z,12.33
2022-11-25T17:59:20.766Z,12.32
2022-11-25T18:01:47.997Z,12.23
2022-11-25T18:04:32.313Z,12.31
2022-11-25T18:06:59.452Z,12.31
2022-11-25T18:09:26.542Z,12.30
2022-11-25T18:11:57.072Z,12.28
2022-11-25T18:14:32.381Z,12.29
2022-11-25T18:17:03.960Z,12.28
2022-11-25T18:19:31.926Z,12.19
2022-11-25T18:22:09.807Z,12.28
2022-11-25T18:24:37.472Z,12.26
2022-11-25T18:27:06.615Z,12.26
2022-11-25T18:29:37.246Z,12.20
2022-11-25T18:32:04.455Z,12.27
2022-11-25T18:34:31.599Z,12.17
2022-11-25T18:36:59.064Z,12.27
2022-11-25T18:39:26.235Z,12.26
2022-11-25T18:41:58.394Z,12.25
2022-11-25T18:44:29.672Z,12.16
2022-11-25T18:46:57.219Z,12.25
2022-11-25T18:49:24.875Z,12.24
2022-11-25T18:51:53.496Z,12.15
2022-11-25T18:54:22.355Z,12.24
2022-11-25T18:56:53.730Z,12.24
2022-11-25T18:59:30.639Z,12.25
2022-11-25T19:02:01.347Z,12.24
2022-11-25T19:04:29.357Z,12.24
2022-11-25T19:06:57.297Z,12.23
2022-11-25T19:09:24.485Z,12.22
2022-11-25T19:11:56.161Z,12.24
2022-11-25T19:14:34.577Z,12.23
2022-11-25T19:17:19.378Z,12.22
2022-11-25T19:19:49.398Z,12.22
2022-11-25T19:22:20.287Z,12.22
2022-11-25T19:24:48.730Z,12.12
2022-11-25T19:27:24.523Z,12.22
2022-11-25T19:29:53.383Z,12.23
2022-11-25T19:32:27.550Z,12.21
2022-11-25T19:35:09.210Z,12.21
2022-11-25T19:37:36.645Z,12.21
2022-11-25T19:40:13.902Z,12.21
2022-11-25T19:42:41.254Z,12.12
2022-11-25T19:45:14.277Z,12.21
2022-11-25T19:47:44.198Z,12.12
2022-11-25T19:50:21.174Z,12.11
2022-11-25T19:52:50.443Z,12.19
2022-11-25T19:55:23.915Z,12.19
2022-11-25T19:57:52.009Z,12.10
2022-11-25T20:00:21.805Z,12.18
2022-11-25T20:02:51.857Z,12.18
2022-11-25T20:05:29.980Z,12.16
2022-11-25T20:07:57.618Z,12.16
2022-11-25T20:10:32.019Z,12.15
2022-11-25T20:13:00.547Z,12.16
2022-11-25T20:15:28.685Z,12.15
2022-11-25T20:18:01.472Z,12.14
2022-11-25T20:20:34.903Z,12.15
2022-11-25T20:23:30.476Z,12.14
2022-11-25T20:25:57.893Z,12.14
2022-11-25T20:28:28.743Z,12.05
2022-11-25T20:30:56.832Z,12.13
2022-11-25T20:33:25.097Z,12.14
2022-11-25T20:35:59.918Z,12.13
2022-11-25T20:38:31.607Z,12.13
2022-11-25T20:41:00.900Z,12.14
2022-11-25T20:43:39.530Z,12.14
2022-11-25T20:46:14.332Z,12.14
2022-11-25T20:48:43.422Z,12.14
2022-11-25T20:51:20.983Z,12.14
2022-11-25T20:53:54.698Z,12.12
2022-11-25T20:56:25.230Z,12.13
2022-11-25T20:58:53.417Z,12.12
2022-11-25T21:01:28.510Z,12.12
2022-11-25T21:03:56.760Z,12.12
2022-11-25T21:06:28.202Z,12.12
2022-11-25T21:08:58.806Z,12.11
2022-11-25T21:11:28.711Z,12.10
2022-11-25T21:13:56.414Z,12.10
2022-11-25T21:16:24.101Z,12.10
2022-11-25T21:18:51.978Z,12.09
2022-11-25T21:21:32.533Z,12.08
2022-11-25T21:24:08.250Z,12.07
2022-11-25T21:26:36.027Z,12.08
2022-11-25T21:29:04.094Z,12.06
2022-11-25T21:31:31.619Z,12.07
2022-11-25T21:34:02.970Z,11.96
2022-11-25T21:36:31.855Z,12.05
2022-11-25T21:39:09.480Z,12.05
2022-11-25T21:41:37.272Z,12.08
2022-11-25T21:44:07.328Z,12.06
2022-11-25T21:46:34.977Z,12.05
2022-11-25T21:49:02.176Z,12.05
2022-11-25T21:51:29.525Z,12.05
2022-11-25T21:53:56.897Z,12.07
2022-11-25T21:56:31.234Z,11.98
2022-11-25T21:59:03.264Z,12.05
2022-11-25T22:01:31.311Z,12.07
2022-11-25T22:03:58.934Z,12.09
2022-11-25T22:06:29.256Z,12.02
2022-11-25T22:08:58.052Z,12.07
2022-11-25T22:11:32.373Z,12.06
2022-11-25T22:14:01.899Z,11.97
2022-11-25T22:16:32.468Z,12.07
2022-11-25T22:19:00.251Z,12.05
2022-11-25T22:21:27.411Z,11.98
2022-11-25T22:23:55.202Z,12.05
2022-11-25T22:26:35.003Z,12.08
2022-11-25T22:29:05.019Z,12.06
2022-11-25T22:31:32.338Z,12.03
2022-11-25T22:33:59.977Z,11.95
2022-11-25T22:36:36.739Z,12.04
2022-11-25T22:39:27.441Z,12.06
2022-11-25T22:41:57.799Z,11.96
2022-11-25T22:44:46.593Z,12.08
2022-11-25T22:47:16.862Z,12.05
2022-11-25T22:49:47.964Z,12.05
2022-11-25T22:52:22.413Z,12.05
2022-11-25T22:54:50.736Z,12.05
2022-11-25T22:57:18.764Z,12.03
2022-11-25T22:59:46.541Z,11.96
2022-11-25T23:02:22.956Z,12.04
2022-11-25T23:04:55.873Z,12.02
2022-11-25T23:07:24.564Z,12.04
2022-11-25T23:09:52.588Z,12.04
2022-11-25T23:12:20.109Z,12.03
2022-11-25T23:14:47.044Z,12.04
2022-11-25T23:17:22.275Z,12.06
2022-11-25T23:19:51.016Z,12.07
2022-11-25T23:22:18.872Z,12.04
2022-11-25T23:24:48.033Z,12.05
2022-11-25T23:29:57.138Z,12.05
2022-11-25T23:32:24.135Z,12.01
2022-11-25T23:34:51.209Z,12.12
2022-11-25T23:37:18.586Z,12.12
2022-11-25T23:39:52.158Z,12.08
2022-11-25T23:42:20.247Z,12.11
2022-11-25T23:44:47.290Z,12.11
2022-11-25T23:47:20.814Z,12.09
2022-11-25T23:49:50.819Z,12.06
2022-11-25T23:52:23.577Z,12.06
2022-11-25T23:54:52.836Z,12.05
2022-11-25T23:57:26.773Z,11.93
2022-11-25T23:59:54.404Z,12.02
